Time;durP1;ratioP1;P1;durP2;ratioP2;P2;SDS_P1;SDS_P2;PMS_P1;PMS_P2;Temp;Humidity;BMP_temperature;BMP_pressure;BME280_temperature;BME280_humidity;BME280_pressure;Samples;Min_cycle;Max_cycle;Signal;HPM_P1;HPM_P2
2023/10/29 09:43:19;;;;;;;;;0.00;0.00;;;;;23.54;43.95;99005.09;5647121;23;46582;-75
2023/10/29 09:45:46;;;;;;;;;0.00;0.00;;;;;23.45;43.78;99002.78;4892644;28;45358;-75
2023/10/29 09:48:17;;;;;;;;;0.33;0.00;;;;;23.54;43.36;99013.06;4883294;29;47063;-76
2023/10/29 09:50:43;;;;;;;;;2.00;0.00;;;;;23.49;43.51;99008.44;4882871;29;45328;-78
2023/10/29 09:53:10;;;;;;;;;0.67;0.00;;;;;23.25;43.66;98974.81;4883437;29;45334;-76
2023/10/29 09:55:35;;;;;;;;;2.67;0.00;;;;;23.44;43.07;99022.41;4882728;29;45539;-75
2023/10/29 09:58:03;;;;;;;;;0.33;0.00;;;;;23.21;43.45;98997.53;4884746;29;46033;-74
2023/10/29 10:00:28;;;;;;;;;2.00;0.67;;;;;23.35;42.98;99023.81;4897304;29;45367;-75
2023/10/29 10:02:58;;;;;;;;;1.33;0.33;;;;;23.34;42.65;99033.59;4892328;29;45392;-76
2023/10/29 10:05:25;;;;;;;;;0.00;0.00;;;;;23.28;42.61;99016.78;4892458;29;45698;-76
2023/10/29 10:07:55;;;;;;;;;0.33;0.00;;;;;23.34;42.90;99027.50;4890415;29;46141;-75
2023/10/29 10:10:20;;;;;;;;;3.67;0.00;;;;;23.32;42.76;99019.78;4890971;28;45393;-75
2023/10/29 10:12:48;;;;;;;;;0.00;0.00;;;;;23.27;42.39;98995.78;4897656;29;45489;-75
2023/10/29 10:15:14;;;;;;;;;0.67;0.00;;;;;23.28;42.53;99003.53;4901222;28;45319;-75
2023/10/29 10:17:44;;;;;;;;;1.00;1.00;;;;;23.21;42.27;99000.19;4900806;28;46426;-74
2023/10/29 10:20:11;;;;;;;;;2.67;0.00;;;;;23.18;42.73;99000.66;4900272;28;45343;-75
2023/10/29 10:22:37;;;;;;;;;1.00;0.00;;;;;23.23;42.55;99000.75;4901131;28;45292;-76
2023/10/29 10:25:03;;;;;;;;;0.67;0.00;;;;;23.07;42.93;98984.53;4900115;28;45514;-74
2023/10/29 10:27:29;;;;;;;;;1.00;0.00;;;;;22.82;42.75;98943.13;4899846;28;47601;-79
2023/10/29 10:29:54;;;;;;;;;0.00;0.00;;;;;23.10;42.38;98985.91;4900141;28;45419;-79
2023/10/29 10:32:26;;;;;;;;;0.67;0.00;;;;;23.23;42.99;99008.72;4900483;28;45423;-77
2023/10/29 10:34:52;;;;;;;;;0.00;0.00;;;;;23.13;42.51;98987.28;4898412;29;45608;-78
2023/10/29 10:37:17;;;;;;;;;0.00;0.00;;;;;23.26;42.77;99010.88;4900459;28;46969;-78
2023/10/29 10:39:42;;;;;;;;;1.33;0.00;;;;;23.29;42.42;99014.91;4899258;29;45482;-79
2023/10/29 10:42:08;;;;;;;;;1.67;0.00;;;;;23.15;42.82;98990.50;4900559;28;45450;-79
2023/10/29 10:44:35;;;;;;;;;0.00;0.00;;;;;23.31;42.84;99020.81;4899808;28;45540;-76
2023/10/29 10:47:03;;;;;;;;;0.67;0.00;;;;;23.23;42.38;98999.94;4896246;28;45577;-76
2023/10/29 10:49:31;;;;;;;;;1.00;0.00;;;;;23.12;42.10;98993.63;4914446;28;45480;-77
2023/10/29 10:52:00;;;;;;;;;0.67;0.00;;;;;23.36;42.75;99015.63;4899999;28;45510;-78
2023/10/29 10:54:26;;;;;;;;;1.33;0.67;;;;;23.27;42.13;99020.47;4899906;28;45358;-82
2023/10/29 10:56:53;;;;;;;;;0.00;0.00;;;;;23.36;42.36;99039.50;4900628;28;46157;-79
2023/10/29 10:59:19;;;;;;;;;0.00;0.00;;;;;23.36;41.85;99022.78;4900248;28;45451;-79
2023/10/29 11:01:46;;;;;;;;;0.00;0.00;;;;;23.33;41.69;99024.03;4901157;28;45382;-80
2023/10/29 11:04:11;;;;;;;;;0.00;0.00;;;;;23.31;41.75;99035.94;4900622;28;45372;-74
2023/10/29 11:06:38;;;;;;;;;1.00;1.00;;;;;23.14;41.84;99004.78;4900032;29;46118;-76
2023/10/29 11:09:06;;;;;;;;;0.00;0.00;;;;;23.33;41.10;99039.97;4900699;28;45364;-75
2023/10/29 11:11:41;;;;;;;;;0.00;0.00;;;;;23.22;41.61;99017.72;4900555;28;45277;-75
2023/10/29 11:14:10;;;;;;;;;0.00;0.00;;;;;23.20;41.25;99027.75;4899675;28;45476;-78
2023/10/29 11:16:48;;;;;;;;;0.00;0.00;;;;;23.35;40.55;99042.38;4899822;28;47244;-79
2023/10/29 11:19:45;;;;;;;;;0.00;0.00;;;;;23.35;40.82;99039.72;4900475;28;45380;-79
2023/10/29 11:22:21;;;;;;;;;0.00;0.00;;;;;23.27;40.90;99035.56;4889271;29;45431;-75
2023/10/29 11:25:05;;;;;;;;;0.00;0.00;;;;;23.38;40.33;99041.91;4899816;28;45435;-75
2023/10/29 11:27:38;;;;;;;;;0.00;0.00;;;;;23.37;40.16;99043.75;4897091;29;45515;-78
2023/10/29 11:30:32;;;;;;;;;0.00;0.00;;;;;23.38;40.31;99033.94;4899841;28;45312;-77
2023/10/29 11:33:27;;;;;;;;;0.00;0.00;;;;;23.40;40.09;99018.59;4858489;29;45540;-75
2023/10/29 11:36:34;;;;;;;;;0.33;0.00;;;;;23.45;40.29;99023.19;4857482;29;45536;-78
2023/10/29 11:39:14;;;;;;;;;0.00;0.00;;;;;23.48;40.77;99034.16;4845354;29;45431;-76
2023/10/29 11:41:41;;;;;;;;;0.00;0.00;;;;;23.50;41.10;99036.59;4860086;29;45575;-75
2023/10/29 11:44:22;;;;;;;;;0.00;0.00;;;;;23.54;40.94;99047.56;4851574;29;45537;-77
2023/10/29 11:47:13;;;;;;;;;1.00;0.00;;;;;23.56;41.00;99058.75;4847368;29;45511;-77
2023/10/29 11:49:41;;;;;;;;;0.00;0.00;;;;;23.56;41.08;99064.88;4854422;29;46407;-77
2023/10/29 11:52:07;;;;;;;;;0.00;0.00;;;;;23.58;41.08;99060.13;4859612;29;45328;-77
2023/10/29 11:54:33;;;;;;;;;0.00;0.00;;;;;23.60;41.41;99073.97;4860238;29;45315;-76
2023/10/29 11:56:59;;;;;;;;;1.33;0.00;;;;;23.38;41.14;99045.38;4859944;29;45477;-77
2023/10/29 11:59:25;;;;;;;;;0.00;0.00;;;;;23.51;41.28;99078.84;4860302;29;46524;-78
2023/10/29 12:01:51;;;;;;;;;0.00;0.00;;;;;23.48;41.84;99066.00;4860213;29;45394;-76
2023/10/29 12:04:16;;;;;;;;;0.00;0.00;;;;;23.67;41.44;99096.94;4859987;29;45364;-75
2023/10/29 12:06:47;;;;;;;;;0.00;0.00;;;;;23.69;41.70;99092.19;4859886;29;45417;-75
2023/10/29 12:09:21;;;;;;;;;1.67;0.00;;;;;23.60;41.68;99073.19;4876855;29;45649;-74
2023/10/29 12:11:57;;;;;;;;;2.00;1.00;;;;;23.71;41.48;99098.88;4898885;28;45315;-75
2023/10/29 12:14:46;;;;;;;;;2.00;1.00;;;;;23.72;41.83;99113.78;4899420;28;45440;-74
2023/10/29 12:17:14;;;;;;;;;0.33;0.00;;;;;23.71;41.74;99100.72;4899411;28;45552;-75
2023/10/29 12:19:41;;;;;;;;;0.00;0.00;;;;;23.77;41.82;99114.94;4899305;29;46943;-76
2023/10/29 12:22:19;;;;;;;;;1.00;0.00;;;;;23.78;41.98;99111.25;4898987;28;45428;-74
2023/10/29 12:24:48;;;;;;;;;0.00;0.00;;;;;23.52;41.99;99072.50;4899081;28;45452;-77
2023/10/29 12:27:14;;;;;;;;;0.00;0.00;;;;;23.80;42.01;99114.47;4899601;28;45441;-77
2023/10/29 12:29:40;;;;;;;;;3.00;0.00;;;;;23.83;42.35;99121.97;4899440;28;46131;-76
2023/10/29 12:32:14;;;;;;;;;0.00;0.00;;;;;23.83;42.24;99119.31;4899426;28;45496;-75
2023/10/29 12:35:06;;;;;;;;;3.00;1.00;;;;;23.84;42.40;99118.25;4899042;28;45423;-76
2023/10/29 12:37:31;;;;;;;;;1.00;1.00;;;;;23.85;42.88;99114.56;4879737;29;45353;-75
2023/10/29 12:40:01;;;;;;;;;1.00;1.00;;;;;23.61;43.01;99075.59;4888273;29;45473;-75
2023/10/29 12:42:52;;;;;;;;;0.33;0.33;;;;;23.87;42.60;99111.66;4898734;28;45431;-74
2023/10/29 12:45:27;;;;;;;;;0.67;0.00;;;;;23.84;42.78;99100.47;4899189;28;45351;-74
2023/10/29 12:48:11;;;;;;;;;1.00;0.33;;;;;23.88;42.59;99110.63;4898921;28;45559;-74
2023/10/29 12:51:02;;;;;;;;;1.00;0.67;;;;;23.89;42.69;99122.88;4899623;28;46308;-75
2023/10/29 12:53:30;;;;;;;;;0.00;0.00;;;;;23.88;43.06;99116.75;4897162;28;45261;-74
2023/10/29 12:56:00;;;;;;;;;0.00;0.00;;;;;23.75;42.96;99093.94;4899724;28;45451;-74
2023/10/29 12:58:28;;;;;;;;;1.00;1.00;;;;;23.90;43.03;99124.47;4901441;29;45382;-75
2023/10/29 13:00:56;;;;;;;;;1.67;0.00;;;;;23.87;42.59;99122.28;4902684;28;47213;-74
2023/10/29 13:03:22;;;;;;;;;1.67;1.67;;;;;23.95;42.71;99122.75;4902531;28;45474;-74
2023/10/29 13:05:48;;;;;;;;;0.33;0.33;;;;;23.96;42.86;99126.22;4902599;28;45391;-74
2023/10/29 13:08:14;;;;;;;;;0.67;0.00;;;;;23.92;43.01;99119.75;4901810;28;45416;-74
2023/10/29 13:10:43;;;;;;;;;3.00;1.67;;;;;23.86;43.67;99100.25;4902223;28;45962;-74
2023/10/29 13:13:08;;;;;;;;;1.00;1.00;;;;;24.00;44.04;99137.16;4901971;28;45352;-75
2023/10/29 13:15:34;;;;;;;;;1.00;0.67;;;;;23.70;44.28;99093.81;4902360;28;45455;-74
2023/10/29 13:18:00;;;;;;;;;2.33;1.67;;;;;23.91;44.23;99128.75;4901803;28;45300;-74
2023/10/29 13:20:26;;;;;;;;;2.33;1.00;;;;;23.89;44.58;99139.59;4901309;29;47042;-75
2023/10/29 13:22:52;;;;;;;;;2.00;1.00;;;;;23.96;45.03;99145.63;4901997;28;45437;-74
2023/10/29 13:25:17;;;;;;;;;1.00;1.00;;;;;23.96;44.80;99142.16;4901578;29;45394;-74
2023/10/29 13:27:43;;;;;;;;;0.67;0.67;;;;;24.04;44.47;99139.13;4902215;28;45824;-75
2023/10/29 13:30:08;;;;;;;;;1.00;1.00;;;;;23.96;45.07;99144.81;4902588;28;47107;-75
2023/10/29 13:32:34;;;;;;;;;3.00;2.00;;;;;24.05;45.41;99158.50;4901811;28;45526;-74
2023/10/29 13:35:00;;;;;;;;;4.00;1.00;;;;;24.05;45.23;99161.97;4902509;28;45408;-75
2023/10/29 13:37:26;;;;;;;;;1.00;1.00;;;;;23.97;45.52;99151.72;4899313;28;46909;-74
2023/10/29 13:39:52;;;;;;;;;0.00;0.00;;;;;24.07;45.38;99154.56;4901351;28;47069;-75
2023/10/29 13:42:18;;;;;;;;;2.00;1.00;;;;;23.99;44.41;99146.19;4901793;28;45387;-74
2023/10/29 13:44:44;;;;;;;;;3.67;2.00;;;;;24.05;44.65;99154.00;4901386;28;45399;-74
2023/10/29 13:47:09;;;;;;;;;1.33;1.00;;;;;23.42;45.25;99060.84;4899880;28;45625;-74
2023/10/29 13:49:35;;;;;;;;;3.67;1.33;;;;;24.05;44.65;99156.66;4898186;28;46665;-74
2023/10/29 13:52:00;;;;;;;;;0.67;0.67;;;;;24.06;45.05;99163.59;4898044;28;45646;-75
2023/10/29 13:54:26;;;;;;;;;1.33;1.33;;;;;23.94;44.61;99137.06;4901208;28;50006;-73
2023/10/29 13:56:52;;;;;;;;;1.00;1.00;;;;;24.09;45.19;99180.94;4901058;28;45408;-74
2023/10/29 13:59:18;;;;;;;;;3.00;1.00;;;;;24.06;45.06;99160.13;4900727;28;45420;-74
2023/10/29 14:01:43;;;;;;;;;2.00;0.67;;;;;24.05;45.35;99172.59;4901055;29;45474;-75
2023/10/29 14:04:09;;;;;;;;;0.00;0.00;;;;;24.02;44.99;99165.09;4900530;29;45348;-75
2023/10/29 14:06:34;;;;;;;;;0.00;0.00;;;;;24.03;45.26;99166.72;4900839;28;45284;-74
2023/10/29 14:09:00;;;;;;;;;1.00;1.00;;;;;24.12;44.80;99182.31;4900804;28;46140;-75
2023/10/29 14:11:26;;;;;;;;;1.33;0.00;;;;;23.62;45.00;99117.06;4900746;28;45324;-74
2023/10/29 14:13:53;;;;;;;;;1.00;0.67;;;;;24.13;45.06;99203.31;4900745;28;45367;-76
2023/10/29 14:16:19;;;;;;;;;0.00;0.00;;;;;24.15;45.15;99189.78;4900676;28;45490;-74
2023/10/29 14:18:45;;;;;;;;;1.00;1.00;;;;;23.96;44.93;99158.91;4900661;29;45503;-74
2023/10/29 14:21:10;;;;;;;;;3.33;2.33;;;;;24.06;44.75;99187.53;4900075;28;45364;-74
2023/10/29 14:23:36;;;;;;;;;2.33;2.33;;;;;24.07;45.11;99177.72;4900852;28;45435;-74
2023/10/29 14:26:01;;;;;;;;;4.00;2.00;;;;;24.17;45.36;99208.97;4899459;29;45355;-75
2023/10/29 14:28:27;;;;;;;;;2.33;2.33;;;;;24.03;45.35;99200.44;4900159;28;46143;-75
2023/10/29 14:30:53;;;;;;;;;2.33;2.00;;;;;24.17;45.35;99212.41;4901050;28;45574;-73
2023/10/29 14:33:21;;;;;;;;;1.67;1.67;;;;;24.17;45.48;99206.31;4900500;28;45612;-75
2023/10/29 14:35:53;;;;;;;;;1.67;1.67;;;;;24.13;45.49;99213.13;4900205;28;45459;-75
2023/10/29 14:38:20;;;;;;;;;1.33;1.33;;;;;24.10;45.56;99209.09;4897969;28;47405;-75
2023/10/29 14:40:45;;;;;;;;;2.00;2.00;;;;;24.17;45.64;99223.06;4900373;28;45379;-75
2023/10/29 14:43:11;;;;;;;;;0.00;0.00;;;;;24.03;45.76;99206.56;4899860;28;45310;-75
2023/10/29 14:45:41;;;;;;;;;2.67;2.00;;;;;24.14;45.68;99220.06;4888808;28;45352;-74
2023/10/29 14:48:07;;;;;;;;;1.33;1.00;;;;;24.17;45.54;99223.06;4900566;28;46198;-77
2023/10/29 14:50:35;;;;;;;;;5.00;2.67;;;;;24.18;45.76;99219.38;4899664;28;45399;-76
2023/10/29 14:53:00;;;;;;;;;1.67;0.67;;;;;24.18;45.81;99219.38;4900242;28;45291;-75
2023/10/29 14:55:25;;;;;;;;;1.67;1.00;;;;;24.17;46.11;99231.03;4900307;28;45388;-75
2023/10/29 14:57:50;;;;;;;;;0.33;0.33;;;;;24.19;45.65;99225.50;4899725;28;52315;-74
2023/10/29 15:00:16;;;;;;;;;1.67;1.67;;;;;24.20;45.87;99236.94;4899898;28;45462;-75
2023/10/29 15:02:41;;;;;;;;;2.00;1.00;;;;;24.09;46.08;99222.63;4900278;28;45354;-75
2023/10/29 15:05:07;;;;;;;;;3.00;0.00;;;;;24.18;45.96;99245.94;4899685;28;45498;-76
2023/10/29 15:07:33;;;;;;;;;1.00;0.33;;;;;24.14;45.99;99239.47;4892220;28;47118;-74
2023/10/29 15:10:00;;;;;;;;;0.67;0.67;;;;;24.21;45.93;99244.66;4898450;29;45402;-74
2023/10/29 15:12:26;;;;;;;;;2.33;1.67;;;;;23.94;45.88;99206.13;4893379;28;45543;-76
2023/10/29 15:14:53;;;;;;;;;0.00;0.00;;;;;24.24;46.24;99257.47;4890438;29;45539;-77
2023/10/29 15:17:22;;;;;;;;;1.67;0.67;;;;;24.14;46.19;99238.66;4892613;28;46413;-76
2023/10/29 15:19:54;;;;;;;;;1.67;0.67;;;;;24.14;46.30;99251.97;4894343;29;45446;-75
2023/10/29 15:22:20;;;;;;;;;2.00;1.00;;;;;24.25;46.34;99269.72;4896364;28;45351;-75
2023/10/29 15:24:45;;;;;;;;;0.00;0.00;;;;;24.29;46.46;99286.03;4896490;29;45559;-74
2023/10/29 15:27:10;;;;;;;;;0.67;0.00;;;;;24.12;46.04;99248.72;4895411;28;46336;-75
2023/10/29 15:29:36;;;;;;;;;1.00;1.00;;;;;24.28;46.37;99271.13;4893558;29;45634;-74
2023/10/29 15:32:01;;;;;;;;;2.33;1.00;;;;;24.31;46.45;99286.59;4887047;28;45464;-74
2023/10/29 15:34:26;;;;;;;;;0.00;0.00;;;;;24.31;46.59;99285.78;4886864;29;45348;-75
2023/10/29 15:36:52;;;;;;;;;0.00;0.00;;;;;24.27;46.45;99283.63;4884010;29;45543;-77
2023/10/29 15:39:17;;;;;;;;;2.67;0.00;;;;;24.22;46.00;99288.00;4890877;28;45483;-76
2023/10/29 15:41:43;;;;;;;;;0.67;0.67;;;;;24.32;46.58;99296.22;4897793;28;45674;-74
2023/10/29 15:44:08;;;;;;;;;0.67;0.67;;;;;24.33;46.02;99299.69;4887334;28;45333;-77
2023/10/29 15:46:37;;;;;;;;;1.33;0.00;;;;;24.17;45.78;99273.53;4894698;28;46419;-76
2023/10/29 15:49:02;;;;;;;;;0.67;0.67;;;;;24.27;45.77;99304.88;4890734;28;45420;-75
2023/10/29 15:51:28;;;;;;;;;0.33;0.33;;;;;24.01;45.90;99272.41;4887078;28;45476;-74
2023/10/29 15:53:54;;;;;;;;;3.67;0.00;;;;;24.26;45.73;99307.72;4890026;29;45365;-74
2023/10/29 15:56:20;;;;;;;;;2.33;1.00;;;;;24.28;45.92;99324.28;4886207;28;45373;-74
2023/10/29 15:58:45;;;;;;;;;2.00;2.00;;;;;24.24;46.02;99315.94;4898245;29;45379;-74
2023/10/29 16:01:17;;;;;;;;;0.00;0.00;;;;;24.26;45.76;99319.22;4899708;28;45372;-74
2023/10/29 16:03:44;;;;;;;;;2.00;0.00;;;;;24.20;45.86;99308.69;4886830;29;45357;-73
2023/10/29 16:06:09;;;;;;;;;2.00;0.00;;;;;24.25;45.84;99319.41;4897332;29;46455;-74
2023/10/29 16:08:38;;;;;;;;;0.00;0.00;;;;;24.25;45.86;99327.41;4899037;28;45475;-72
2023/10/29 16:11:07;;;;;;;;;2.33;1.00;;;;;24.24;45.79;99328.41;4898979;28;45392;-74
2023/10/29 16:13:32;;;;;;;;;0.67;0.00;;;;;24.10;45.92;99318.03;4899120;28;45503;-74
2023/10/29 16:15:57;;;;;;;;;0.00;0.00;;;;;24.24;45.83;99339.06;4897908;28;46483;-74
2023/10/29 16:18:23;;;;;;;;;1.67;0.33;;;;;24.20;45.93;99337.91;4898845;28;45445;-75
2023/10/29 16:20:48;;;;;;;;;0.67;0.33;;;;;24.23;45.86;99356.03;4898873;28;45412;-75
2023/10/29 16:23:13;;;;;;;;;1.67;0.67;;;;;24.15;46.09;99350.03;4898934;28;45435;-76
2023/10/29 16:25:39;;;;;;;;;3.00;1.00;;;;;24.24;45.46;99370.94;4897249;29;46198;-75
2023/10/29 16:28:04;;;;;;;;;0.00;0.00;;;;;24.23;45.54;99362.16;4898781;28;45420;-75
2023/10/29 16:30:29;;;;;;;;;0.00;0.00;;;;;24.07;45.39;99353.84;4898839;28;45511;-74
2023/10/29 16:32:55;;;;;;;;;2.00;0.67;;;;;24.18;45.57;99376.13;4898452;28;45495;-75
2023/10/29 16:35:21;;;;;;;;;0.00;0.00;;;;;24.23;45.59;99379.94;4898647;28;46846;-74
2023/10/29 16:37:46;;;;;;;;;1.33;0.33;;;;;24.18;45.35;99384.13;4897337;29;45454;-75
2023/10/29 16:40:12;;;;;;;;;1.33;0.00;;;;;24.05;45.42;99360.41;4896121;28;45221;-74
2023/10/29 16:42:37;;;;;;;;;0.00;0.00;;;;;24.09;45.44;99366.91;4898600;28;45452;-74
2023/10/29 16:45:02;;;;;;;;;0.67;0.67;;;;;24.22;45.29;99396.94;4898349;28;46075;-74
2023/10/29 16:47:28;;;;;;;;;2.00;0.00;;;;;24.15;45.27;99386.41;4896972;28;45479;-75
2023/10/29 16:49:53;;;;;;;;;0.00;0.00;;;;;24.19;45.40;99398.22;4898222;28;45238;-74
2023/10/29 16:52:19;;;;;;;;;1.33;0.00;;;;;24.20;45.22;99399.81;4898516;28;45408;-74
2023/10/29 16:54:45;;;;;;;;;1.00;0.00;;;;;24.21;45.10;99409.41;4898089;28;45976;-74
2023/10/29 16:57:11;;;;;;;;;0.00;0.00;;;;;24.04;45.08;99386.19;4898239;28;45335;-74
2023/10/29 16:59:36;;;;;;;;;0.00;0.00;;;;;24.22;45.24;99410.22;4898171;28;45304;-74
2023/10/29 17:02:02;;;;;;;;;0.67;0.00;;;;;24.22;45.16;99408.38;4898084;28;45435;-74
2023/10/29 17:04:27;;;;;;;;;0.33;0.33;;;;;24.06;45.20;99393.94;4898234;28;47277;-74
2023/10/29 17:06:53;;;;;;;;;0.33;0.00;;;;;24.07;44.79;99403.53;4898365;28;45522;-75
2023/10/29 17:09:18;;;;;;;;;0.33;0.33;;;;;24.09;45.19;99404.09;4898451;28;45395;-74
2023/10/29 17:11:46;;;;;;;;;0.00;0.00;;;;;24.14;45.14;99420.16;4898517;28;45542;-74
2023/10/29 17:14:14;;;;;;;;;1.67;0.00;;;;;24.20;45.08;99431.69;4898260;28;46275;-74
2023/10/29 17:16:39;;;;;;;;;0.00;0.00;;;;;24.09;44.94;99414.72;4897898;28;45520;-74
2023/10/29 17:19:05;;;;;;;;;1.00;1.00;;;;;24.16;44.95;99426.06;4897028;29;45490;-74
2023/10/29 17:21:30;;;;;;;;;2.33;0.00;;;;;24.16;44.75;99438.53;4898277;28;45537;-74
2023/10/29 17:23:56;;;;;;;;;0.00;0.00;;;;;24.13;45.05;99436.31;4897989;28;46205;-74
2023/10/29 17:26:21;;;;;;;;;0.00;0.00;;;;;24.05;43.55;99427.66;4898264;28;45390;-74
2023/10/29 17:28:47;;;;;;;;;0.33;0.33;;;;;24.14;43.18;99445.91;4898242;28;45411;-74
2023/10/29 17:31:19;;;;;;;;;0.33;0.00;;;;;24.09;42.66;99456.44;4897666;28;45559;-74
2023/10/29 17:33:45;;;;;;;;;0.00;0.00;;;;;24.01;41.84;99455.72;4898295;28;45407;-75
2023/10/29 17:36:16;;;;;;;;;1.00;0.00;;;;;23.87;41.90;99455.09;4898512;28;45402;-75
2023/10/29 17:38:42;;;;;;;;;0.00;0.00;;;;;23.92;40.98;99465.84;4898690;28;45369;-74
2023/10/29 17:41:18;;;;;;;;;1.33;0.33;;;;;23.84;40.91;99464.31;4898288;28;45550;-75
2023/10/29 17:43:45;;;;;;;;;0.00;0.00;;;;;23.80;40.90;99470.31;4899505;28;46358;-73
2023/10/29 17:46:15;;;;;;;;;1.00;1.00;;;;;23.71;40.63;99464.50;4900735;28;45449;-73
2023/10/29 17:48:42;;;;;;;;;0.00;0.00;;;;;23.72;39.94;99482.06;4901088;28;45332;-72
2023/10/29 17:51:08;;;;;;;;;2.33;1.00;;;;;23.72;40.10;99482.88;4901174;28;45303;-73
2023/10/29 17:53:34;;;;;;;;;0.67;0.67;;;;;23.58;40.21;99473.47;4900618;28;46099;-73
2023/10/29 17:56:00;;;;;;;;;0.00;0.00;;;;;23.54;39.71;99472.28;4900703;28;45393;-74
2023/10/29 17:58:25;;;;;;;;;3.67;1.00;;;;;23.50;39.61;99462.13;4900658;28;45417;-74
2023/10/29 18:00:51;;;;;;;;;0.67;0.67;;;;;23.60;39.77;99496.09;4901012;28;45387;-73
2023/10/29 18:03:16;;;;;;;;;2.00;2.00;;;;;23.37;39.39;99471.03;4900826;28;46542;-75
2023/10/29 18:05:42;;;;;;;;;2.33;1.33;;;;;23.56;39.52;99507.38;4900968;28;45343;-74
2023/10/29 18:08:08;;;;;;;;;0.00;0.00;;;;;23.56;39.91;99505.53;4901469;28;45372;-74
2023/10/29 18:10:34;;;;;;;;;1.33;1.00;;;;;23.54;39.80;99498.84;4901336;28;45512;-74
2023/10/29 18:12:59;;;;;;;;;0.00;0.00;;;;;23.49;39.80;99489.72;4900954;28;45753;-75
2023/10/29 18:15:25;;;;;;;;;1.00;1.00;;;;;23.57;39.60;99506.38;4901261;28;45293;-76
2023/10/29 18:17:51;;;;;;;;;2.00;0.00;;;;;23.33;40.05;99466.41;4901491;28;45315;-75
2023/10/29 18:20:16;;;;;;;;;3.67;0.67;;;;;23.59;40.13;99507.75;4901476;28;45246;-74
2023/10/29 18:22:41;;;;;;;;;0.67;0.00;;;;;23.57;39.78;99509.03;4899913;28;45957;-77
2023/10/29 18:25:07;;;;;;;;;2.00;1.00;;;;;23.62;40.16;99517.13;4901006;28;54423;-77
2023/10/29 18:27:38;;;;;;;;;0.33;0.00;;;;;23.48;40.51;99501.31;4900982;28;45225;-77
2023/10/29 18:30:08;;;;;;;;;0.67;0.00;;;;;23.58;40.57;99515.94;4901598;28;45451;-76
2023/10/29 18:32:33;;;;;;;;;0.67;0.00;;;;;23.57;40.89;99511.69;4900723;28;46431;-76
2023/10/29 18:35:00;;;;;;;;;0.00;0.00;;;;;23.62;40.63;99519.78;4901515;28;45396;-76
2023/10/29 18:37:25;;;;;;;;;1.00;1.00;;;;;23.70;40.76;99531.94;4901172;28;45449;-75
2023/10/29 18:39:51;;;;;;;;;1.67;0.67;;;;;23.60;41.33;99527.94;4894427;28;45483;-75
2023/10/29 18:42:16;;;;;;;;;0.00;0.00;;;;;23.73;41.18;99534.94;4885918;29;46260;-76
2023/10/29 18:44:42;;;;;;;;;0.67;0.67;;;;;23.64;41.21;99515.06;4899021;28;45406;-77
2023/10/29 18:47:09;;;;;;;;;2.67;1.00;;;;;23.78;41.58;99541.44;4893400;28;45669;-77
2023/10/29 18:49:34;;;;;;;;;1.00;0.00;;;;;23.73;41.58;99532.28;4894743;29;45570;-77
2023/10/29 18:52:02;;;;;;;;;1.00;0.00;;;;;23.76;41.64;99544.31;4897835;29;45594;-77
2023/10/29 18:54:27;;;;;;;;;2.67;1.00;;;;;23.81;41.96;99541.00;4890080;29;45290;-80
2023/10/29 18:56:52;;;;;;;;;0.00;0.00;;;;;23.78;41.83;99544.09;4893219;28;46932;-80
2023/10/29 18:59:18;;;;;;;;;5.33;2.00;;;;;23.83;42.12;99553.03;4893249;29;45550;-79
2023/10/29 19:01:44;;;;;;;;;2.33;0.00;;;;;23.73;42.17;99542.13;4881400;29;45421;-75
2023/10/29 19:04:10;;;;;;;;;1.33;0.67;;;;;23.66;42.52;99541.38;4898519;29;45329;-74
2023/10/29 19:06:35;;;;;;;;;1.00;0.67;;;;;23.82;42.31;99550.56;4900843;28;45255;-78
2023/10/29 19:09:01;;;;;;;;;0.00;0.00;;;;;23.85;42.42;99556.25;4901574;28;45390;-75
2023/10/29 19:11:31;;;;;;;;;1.67;1.00;;;;;23.62;42.14;99527.75;4900465;28;46171;-73
2023/10/29 19:13:56;;;;;;;;;1.00;1.00;;;;;23.88;42.32;99562.16;4901119;28;45427;-73
2023/10/29 19:16:22;;;;;;;;;1.00;0.00;;;;;23.73;42.39;99540.25;4901294;28;45399;-71
2023/10/29 19:18:47;;;;;;;;;3.33;1.00;;;;;23.94;42.48;99575.34;4901344;28;45573;-73
2023/10/29 19:21:13;;;;;;;;;1.67;0.00;;;;;22.67;42.19;99377.50;4883629;28;45672;-72
2023/10/29 19:23:39;;;;;;;;;2.00;0.00;;;;;23.96;42.39;99585.75;4882015;29;45331;-71
2023/10/29 19:26:05;;;;;;;;;0.67;0.67;;;;;23.92;42.73;99579.25;4888554;29;45544;-74
2023/10/29 19:28:31;;;;;;;;;1.00;1.00;;;;;23.84;42.44;99553.81;4894668;29;45368;-72
2023/10/29 19:30:56;;;;;;;;;0.00;0.00;;;;;23.02;42.68;99429.19;4891741;28;45628;-77
2023/10/29 19:33:22;;;;;;;;;1.00;1.00;;;;;24.00;42.73;99575.47;4894375;28;45549;-75
2023/10/29 19:35:48;;;;;;;;;1.00;0.00;;;;;24.01;42.41;99579.78;4894001;28;45394;-72
2023/10/29 19:38:13;;;;;;;;;1.00;1.00;;;;;23.74;42.77;99547.19;4900384;28;45368;-73
2023/10/29 19:40:39;;;;;;;;;0.67;0.67;;;;;24.03;42.78;99596.28;4899803;28;46270;-73
2023/10/29 19:43:04;;;;;;;;;1.33;1.00;;;;;24.04;43.00;99597.94;4900128;28;45458;-72
2023/10/29 19:45:30;;;;;;;;;0.00;0.00;;;;;24.03;42.71;99605.06;4897742;29;45300;-75
2023/10/29 19:47:56;;;;;;;;;1.00;1.00;;;;;24.00;42.88;99596.72;4899059;28;45456;-73
2023/10/29 19:50:21;;;;;;;;;0.00;0.00;;;;;23.74;43.25;99560.47;4898691;28;46030;-75
2023/10/29 19:52:47;;;;;;;;;0.33;0.33;;;;;24.04;43.19;99598.75;4898633;28;45224;-75
2023/10/29 19:55:15;;;;;;;;;0.00;0.00;;;;;23.94;43.01;99590.50;4897477;28;45506;-76
2023/10/29 19:57:42;;;;;;;;;0.33;0.33;;;;;23.95;43.02;99598.22;4898787;28;45537;-76
2023/10/29 20:00:08;;;;;;;;;0.67;0.00;;;;;24.09;42.88;99621.16;4896921;29;46721;-74
2023/10/29 20:02:33;;;;;;;;;2.00;0.00;;;;;23.99;42.98;99611.06;4898137;29;45514;-75
2023/10/29 20:04:58;;;;;;;;;1.00;0.00;;;;;24.08;43.30;99630.97;4899694;28;45406;-78
2023/10/29 20:07:24;;;;;;;;;0.00;0.00;;;;;24.07;42.68;99629.38;4899743;29;45402;-79
2023/10/29 20:09:49;;;;;;;;;1.33;0.00;;;;;24.11;43.33;99627.06;4898559;28;45969;-76
2023/10/29 20:12:14;;;;;;;;;2.00;1.00;;;;;24.05;43.45;99626.91;4897074;29;56097;-75
2023/10/29 20:14:40;;;;;;;;;1.33;0.00;;;;;24.02;43.49;99618.59;4898930;28;45573;-76
2023/10/29 20:17:05;;;;;;;;;0.33;0.33;;;;;24.11;43.43;99633.19;4898999;28;45445;-75
2023/10/29 20:19:31;;;;;;;;;0.00;0.00;;;;;24.11;43.46;99643.00;4899085;28;46170;-76
2023/10/29 20:21:56;;;;;;;;;0.67;0.67;;;;;24.00;43.44;99620.63;4898352;28;45466;-75
2023/10/29 20:24:22;;;;;;;;;0.33;0.33;;;;;23.95;43.36;99619.47;4898697;28;45474;-75
2023/10/29 20:26:48;;;;;;;;;0.00;0.00;;;;;24.02;43.49;99632.66;4896263;29;45503;-75
2023/10/29 20:29:14;;;;;;;;;1.00;0.00;;;;;24.14;43.77;99651.34;4898505;28;46976;-75
2023/10/29 20:31:39;;;;;;;;;2.00;0.00;;;;;24.05;43.06;99642.03;4898547;28;45862;-75
2023/10/29 20:34:04;;;;;;;;;3.00;0.00;;;;;24.13;43.54;99657.69;4898658;28;45363;-75
2023/10/29 20:36:30;;;;;;;;;0.00;0.00;;;;;24.12;43.42;99660.56;4898751;28;45385;-75
2023/10/29 20:38:55;;;;;;;;;0.33;0.00;;;;;24.09;43.68;99650.38;4898091;29;45515;-75
2023/10/29 20:41:20;;;;;;;;;0.00;0.00;;;;;24.15;43.68;99660.09;4895867;28;45376;-76
2023/10/29 20:43:47;;;;;;;;;0.00;0.00;;;;;24.11;43.67;99656.28;4898374;28;45442;-76
2023/10/29 20:46:13;;;;;;;;;0.00;0.00;;;;;24.07;43.73;99656.72;4898522;28;45530;-75
2023/10/29 20:48:38;;;;;;;;;0.33;0.33;;;;;24.10;43.50;99668.75;4898266;28;47047;-75
2023/10/29 20:51:04;;;;;;;;;1.00;0.00;;;;;24.14;43.64;99667.28;4897989;28;45394;-84
2023/10/29 20:53:29;;;;;;;;;2.00;0.00;;;;;23.97;43.69;99632.53;4899055;28;45314;-77
2023/10/29 20:55:54;;;;;;;;;0.00;0.00;;;;;24.14;43.71;99661.97;4895175;29;45266;-76
2023/10/29 20:58:20;;;;;;;;;2.00;0.33;;;;;24.15;43.56;99668.06;4897817;28;46795;-75
2023/10/29 21:00:47;;;;;;;;;3.00;0.67;;;;;24.15;43.55;99668.88;4898102;28;45267;-75
2023/10/29 21:03:13;;;;;;;;;0.00;0.00;;;;;24.00;44.15;99650.69;4898435;28;45329;-76
2023/10/29 21:05:38;;;;;;;;;0.00;0.00;;;;;24.18;43.97;99667.63;4897662;28;45298;-78
2023/10/29 21:08:04;;;;;;;;;0.00;0.00;;;;;24.04;43.61;99645.75;4898411;28;45367;-75
2023/10/29 21:10:30;;;;;;;;;2.00;0.00;;;;;24.14;43.81;99659.31;4898035;28;45326;-76
2023/10/29 21:12:56;;;;;;;;;1.00;1.00;;;;;24.14;43.79;99661.16;4898619;28;45491;-75
2023/10/29 21:15:23;;;;;;;;;0.00;0.00;;;;;24.13;43.72;99660.34;4898635;29;45309;-77
2023/10/29 21:17:49;;;;;;;;;1.00;0.00;;;;;24.15;44.23;99665.41;4898931;28;46231;-76